aviador You're here:

YWGT Decoded Metar

WANGARATTA ARP in _UNIDENTIFIED
Report Time2018-06-25 09:00:00
UTC Time2018-06-25 09:55:42
Flight Rules vfr VFR
WindCalm
Visibility9999 m
Phenomena:N/A
Clouds:N/A
Expected CloudBase > 800 ft AGL from Temp-Dew spread
CeilingNone
Temp05°C (ISA -9)
Dew Point03°C (87% RH)
AAT3.5°C
QNH1031 hPa
Density Alt-1,089 ft
Elevation502 ft
Report Wrong Elevation
Raw Report
YWGT 250900Z AUTO 00000KT 9999 // NCD 05/03 Q1031=

Extra information for YWGT:More info

Metar Taf Metar & Taf Last 4 Metars F.Rules Stats Wind Profile Meteogram Temp Stats Airport Information Weather charts Add Link Nearby VenuesMetar ALERT Operation Metar Decoded Social comments